Time;durP1;ratioP1;P1;durP2;ratioP2;P2;SDS_P1;SDS_P2;PMS_P1;PMS_P2;Temp;Humidity;BMP_temperature;BMP_pressure;BME280_temperature;BME280_humidity;BME280_pressure;Samples;Min_cycle;Max_cycle;Signal;HPM_P1;HPM_P2
2021/08/04 00:01:32;;;;;;;3.55;1.83;;;;;;;9.84;84.78;90674.63;4994311;28;20050;-88
2021/08/04 00:04:10;;;;;;;3.13;1.77;;;;;;;9.77;84.38;90662.16;4961561;28;20030;-88
2021/08/04 00:06:45;;;;;;;4.55;1.85;;;;;;;9.68;85.48;90665.97;4993576;28;20053;-88
2021/08/04 00:09:18;;;;;;;3.92;1.77;;;;;;;9.69;85.51;90678.66;4977469;28;20387;-88
2021/08/04 00:11:59;;;;;;;4.60;1.92;;;;;;;9.67;85.80;90670.41;4977639;28;20057;-87
2021/08/04 00:14:33;;;;;;;4.22;1.77;;;;;;;9.64;86.11;90680.72;4976884;28;20053;-88
2021/08/04 00:17:09;;;;;;;3.05;1.90;;;;;;;9.64;83.70;90684.06;4961445;28;20026;-88
2021/08/04 00:19:45;;;;;;;3.97;1.60;;;;;;;9.66;83.48;90683.75;4977559;28;20092;-88
2021/08/04 00:22:21;;;;;;;7.60;2.20;;;;;;;9.65;82.61;90688.22;4993055;28;20026;-87
2021/08/04 00:24:56;;;;;;;2.97;1.90;;;;;;;9.59;84.09;90679.09;4945866;28;20030;-88
2021/08/04 00:27:35;;;;;;;4.82;1.95;;;;;;;9.63;84.85;90685.16;4993133;28;20105;-88
2021/08/04 00:30:16;;;;;;;3.63;1.88;;;;;;;9.63;84.54;90674.75;4976127;28;20030;-87
2021/08/04 00:32:50;;;;;;;2.55;1.52;;;;;;;9.84;82.03;90671.25;4962023;28;20482;-89
2021/08/04 00:35:26;;;;;;;3.50;1.90;;;;;;;9.72;82.36;90672.81;4945800;28;20026;-87
2021/08/04 00:38:02;;;;;;;3.67;1.92;;;;;;;9.75;82.02;90660.97;4977054;28;20027;-88
2021/08/04 00:40:34;;;;;;;2.70;1.52;;;;;;;9.71;83.08;90662.72;4944240;28;20038;-88
2021/08/04 00:43:15;;;;;;;3.47;1.70;;;;;;;9.67;83.92;90664.44;4945077;28;20057;-88
2021/08/04 00:45:54;;;;;;;4.00;1.88;;;;;;;9.71;82.38;90665.31;4976896;28;20057;-88
2021/08/04 00:48:34;;;;;;;2.63;1.70;;;;;;;9.65;82.85;90658.84;4977151;28;20410;-87
2021/08/04 00:51:09;;;;;;;3.60;1.70;;;;;;;9.67;82.80;90656.66;4944839;28;20117;-87
2021/08/04 00:53:48;;;;;;;5.28;1.88;;;;;;;9.57;83.66;90653.41;4992681;28;20022;-87
2021/08/04 00:56:28;;;;;;;3.75;1.70;;;;;;;9.53;84.46;90649.94;4992639;28;20518;-88
2021/08/04 00:59:06;;;;;;;2.78;1.75;;;;;;;9.52;85.40;90658.84;4961484;28;20030;-87
2021/08/04 01:01:58;;;;;;;4.15;2.00;;;;;;;9.51;85.36;90654.72;4976865;28;20026;-87
2021/08/04 01:04:30;;;;;;;2.72;1.60;;;;;;;9.54;85.57;90661.09;4993637;28;20219;-88
2021/08/04 01:07:29;;;;;;;3.95;1.70;;;;;;;9.50;85.73;90655.78;4944130;28;20053;-87
2021/08/04 01:10:20;;;;;;;3.17;1.80;;;;;;;9.45;86.70;90658.63;4990391;28;20073;-88
2021/08/04 01:13:20;;;;;;;3.33;1.90;;;;;;;9.50;85.11;90666.19;5003127;23;20045;-88
2021/08/04 01:16:07;;;;;;;4.40;1.77;;;;;;;9.53;84.51;90665.53;5004094;28;20044;-87
2021/08/04 01:18:45;;;;;;;3.83;1.80;;;;;;;9.46;84.66;90659.38;5029563;28;20056;-88
2021/08/04 01:21:22;;;;;;;3.58;2.00;;;;;;;9.39;85.37;90648.75;5025640;28;20025;-89
2021/08/04 01:24:19;;;;;;;3.72;2.08;;;;;;;9.36;86.04;90660.56;5032430;28;20068;-88
2021/08/04 01:27:03;;;;;;;4.60;2.05;;;;;;;9.69;83.42;90649.28;4988553;28;20029;-87
2021/08/04 01:29:30;;;;;;;3.93;1.70;;;;;;;9.57;85.11;90650.03;5019710;28;20025;-87
2021/08/04 01:32:05;;;;;;;3.72;1.90;;;;;;;9.51;84.89;90641.72;5001741;28;20278;-87
2021/08/04 01:34:41;;;;;;;2.88;1.80;;;;;;;9.49;85.81;90649.06;5018906;28;20029;-87
2021/08/04 01:37:17;;;;;;;3.05;1.65;;;;;;;9.48;86.00;90641.63;5020166;28;20048;-87
2021/08/04 01:39:57;;;;;;;2.78;1.90;;;;;;;9.49;86.27;90633.47;5019328;28;20075;-86
2021/08/04 01:42:39;;;;;;;2.63;1.67;;;;;;;9.45;86.29;90642.25;5003435;28;20113;-87
2021/08/04 01:45:21;;;;;;;3.97;1.88;;;;;;;9.38;86.17;90632.41;5004847;28;20029;-86
2021/08/04 01:47:57;;;;;;;4.63;1.90;;;;;;;9.35;86.51;90633.06;5009733;28;20029;-86
2021/08/04 01:50:34;;;;;;;3.00;1.85;;;;;;;9.55;85.34;90631.41;4984127;28;20021;-88
2021/08/04 01:53:16;;;;;;;3.55;1.63;;;;;;;9.42;86.41;90632.50;5018023;28;20104;-86
2021/08/04 01:55:56;;;;;;;3.55;1.88;;;;;;;9.42;86.20;90628.06;5035074;28;20021;-85
2021/08/04 01:58:33;;;;;;;3.13;1.70;;;;;;;9.49;85.55;90624.91;5006602;28;20029;-85
2021/08/04 02:01:14;;;;;;;2.72;1.70;;;;;;;9.42;86.05;90622.84;5006122;28;20026;-86
2021/08/04 02:03:51;;;;;;;2.75;1.50;;;;;;;9.31;86.36;90625.16;5005973;28;20034;-85
2021/08/04 02:06:34;;;;;;;3.22;1.83;;;;;;;9.36;86.87;90618.19;4987847;28;20029;-86
2021/08/04 02:09:24;;;;;;;2.90;2.08;;;;;;;9.39;86.83;90620.16;5003910;28;20026;-85
2021/08/04 02:12:09;;;;;;;3.95;2.10;;;;;;;9.34;86.85;90616.69;5000675;28;20387;-85
2021/08/04 02:14:58;;;;;;;4.20;1.70;;;;;;;9.31;87.27;90627.00;5000475;28;20025;-86
2021/08/04 02:17:35;;;;;;;3.20;1.75;;;;;;;9.39;86.55;90613.09;5037468;28;20030;-85
2021/08/04 02:20:26;;;;;;;3.00;1.80;;;;;;;9.30;86.50;90609.88;5005982;28;20029;-85
2021/08/04 02:23:12;;;;;;;3.33;1.95;;;;;;;9.35;85.92;90607.06;5025540;28;20049;-85
2021/08/04 02:26:05;;;;;;;2.55;1.95;;;;;;;9.30;86.83;90602.09;5013682;28;20103;-86
2021/08/04 02:28:39;;;;;;;3.13;2.05;;;;;;;9.20;87.40;90597.31;5044172;28;20036;-86
2021/08/04 02:31:16;;;;;;;3.80;1.90;;;;;;;9.26;87.66;90604.56;5041700;28;20017;-86
2021/08/04 02:33:56;;;;;;;3.13;1.70;;;;;;;9.22;87.39;90598.53;5042494;28;20025;-85
2021/08/04 02:36:34;;;;;;;3.08;1.80;;;;;;;9.26;87.69;90598.63;5043973;28;20029;-85
2021/08/04 02:39:01;;;;;;;2.72;1.70;;;;;;;9.26;87.24;90594.19;5042504;28;20024;-85
2021/08/04 02:41:46;;;;;;;3.45;1.88;;;;;;;9.24;87.89;90596.34;5058417;28;20021;-85
2021/08/04 02:44:24;;;;;;;4.78;2.00;;;;;;;9.20;88.25;90605.13;5027647;28;20032;-86
2021/08/04 02:47:04;;;;;;;3.35;1.80;;;;;;;9.17;88.65;90600.56;5059424;28;20033;-86
2021/08/04 02:49:41;;;;;;;4.80;1.90;;;;;;;9.12;88.26;90601.56;5058943;28;20036;-85
2021/08/04 02:52:24;;;;;;;2.20;1.60;;;;;;;9.15;88.32;90593.09;5042437;28;20088;-85
2021/08/04 02:55:02;;;;;;;3.08;1.85;;;;;;;9.12;88.30;90580.75;5044197;28;20021;-85
2021/08/04 02:57:37;;;;;;;2.80;1.90;;;;;;;9.10;87.94;90588.13;5043222;28;20029;-86
2021/08/04 03:00:21;;;;;;;3.58;2.03;;;;;;;9.15;88.04;90592.31;5043727;28;20071;-86
2021/08/04 03:02:57;;;;;;;3.20;1.88;;;;;;;9.23;87.85;90583.66;5043688;28;20044;-85
2021/08/04 03:05:34;;;;;;;2.67;1.80;;;;;;;9.39;87.49;90586.34;5043705;28;20397;-86
2021/08/04 03:08:14;;;;;;;2.53;1.73;;;;;;;9.31;87.83;90596.53;5026794;28;20041;-86
2021/08/04 03:10:42;;;;;;;3.80;2.10;;;;;;;9.24;88.26;90583.34;5042810;28;20021;-85
2021/08/04 03:13:21;;;;;;;2.97;1.98;;;;;;;9.17;88.22;90582.38;5039368;28;20485;-86
2021/08/04 03:15:57;;;;;;;3.10;2.00;;;;;;;9.14;88.29;90580.41;5036675;28;20025;-85
2021/08/04 03:18:41;;;;;;;3.13;2.03;;;;;;;9.09;88.55;90576.97;5020226;28;20031;-86
2021/08/04 03:21:18;;;;;;;2.83;1.80;;;;;;;9.16;88.85;90593.88;5053508;28;20053;-86
2021/08/04 03:23:59;;;;;;;3.15;1.95;;;;;;;9.24;87.84;90590.38;5035199;28;20033;-83
2021/08/04 03:26:37;;;;;;;3.55;1.83;;;;;;;9.19;88.26;90583.56;5017433;28;20029;-84
2021/08/04 03:29:11;;;;;;;3.33;2.00;;;;;;;9.22;88.38;90582.91;5017615;28;20119;-83
2021/08/04 03:31:52;;;;;;;3.53;1.75;;;;;;;9.20;88.50;90595.47;5033542;28;20104;-85
2021/08/04 03:34:26;;;;;;;3.80;2.10;;;;;;;9.11;89.02;90581.81;5038453;28;20421;-85
2021/08/04 03:37:02;;;;;;;3.72;1.95;;;;;;;9.16;89.17;90593.88;5021042;28;20501;-85
2021/08/04 03:39:37;;;;;;;4.65;2.22;;;;;;;9.16;88.99;90596.47;5037437;28;20041;-84
2021/08/04 03:42:22;;;;;;;3.40;1.90;;;;;;;9.16;89.13;90593.88;5021582;28;20021;-85
2021/08/04 03:44:58;;;;;;;3.47;2.00;;;;;;;9.09;89.06;90595.16;5038613;28;20049;-85
2021/08/04 03:47:37;;;;;;;2.90;1.90;;;;;;;9.07;89.43;90596.56;5037334;28;20467;-85
2021/08/04 03:50:17;;;;;;;3.40;2.00;;;;;;;9.10;89.25;90590.72;5010881;28;20136;-84
2021/08/04 03:52:55;;;;;;;3.13;2.10;;;;;;;9.18;88.89;90589.09;5017131;28;20017;-85
2021/08/04 03:55:31;;;;;;;2.95;1.80;;;;;;;9.19;89.12;90588.78;5020916;28;20029;-85
2021/08/04 03:58:09;;;;;;;3.17;2.08;;;;;;;9.16;89.43;90578.25;5026070;28;20020;-84
2021/08/04 04:00:39;;;;;;;3.85;2.30;;;;;;;9.12;89.54;90583.34;5042078;28;20486;-84
2021/08/04 04:03:20;;;;;;;3.15;1.92;;;;;;;9.13;89.42;90578.91;4988299;28;20115;-84
2021/08/04 04:05:59;;;;;;;2.72;1.85;;;;;;;9.13;89.05;90576.31;5004959;28;20026;-87
2021/08/04 04:08:38;;;;;;;4.03;2.30;;;;;;;9.13;88.94;90574.47;5020874;28;20034;-87
2021/08/04 04:11:11;;;;;;;3.40;1.90;;;;;;;9.12;89.16;90580.75;5004293;28;20104;-86
2021/08/04 04:13:52;;;;;;;3.47;1.90;;;;;;;9.14;89.14;90583.03;4988438;28;20057;-85
2021/08/04 04:16:29;;;;;;;5.70;2.10;;;;;;;9.12;89.52;90579.97;5004885;28;20455;-85
2021/08/04 04:19:12;;;;;;;3.55;2.00;;;;;;;9.17;89.75;90579.78;5003522;28;20113;-86
2021/08/04 04:21:50;;;;;;;4.97;1.90;;;;;;;9.08;89.13;90578.06;5006447;28;20440;-86
2021/08/04 04:24:28;;;;;;;4.32;2.53;;;;;;;9.10;89.34;90581.06;5005347;28;20025;-86
2021/08/04 04:27:07;;;;;;;5.35;2.13;;;;;;;9.09;89.79;90576.22;5000909;28;20029;-85
2021/08/04 04:29:37;;;;;;;2.92;2.03;;;;;;;9.08;89.90;90583.25;5002220;28;20041;-85
2021/08/04 04:32:12;;;;;;;3.25;2.08;;;;;;;9.07;90.01;90579.13;4984449;28;20026;-86
2021/08/04 04:34:48;;;;;;;3.65;2.15;;;;;;;9.12;90.17;90578.16;5001282;28;20477;-86
2021/08/04 04:37:28;;;;;;;3.13;1.90;;;;;;;9.15;89.75;90579.31;5017227;28;20033;-87
2021/08/04 04:39:59;;;;;;;4.70;1.98;;;;;;;9.21;89.05;90575.44;5001338;28;20030;-87
2021/08/04 04:42:37;;;;;;;3.40;2.10;;;;;;;9.19;88.90;90582.81;5002069;28;20101;-86
2021/08/04 04:45:16;;;;;;;5.25;2.10;;;;;;;9.18;89.41;90574.22;5001978;28;20018;-86
2021/08/04 04:47:54;;;;;;;7.13;2.10;;;;;;;9.23;89.90;90575.88;5018258;28;20084;-86
2021/08/04 04:50:31;;;;;;;4.07;2.20;;;;;;;9.24;89.13;90570.34;5001622;28;20497;-86
2021/08/04 04:53:12;;;;;;;3.50;2.50;;;;;;;9.31;88.75;90575.75;5002427;28;20053;-86
2021/08/04 04:55:49;;;;;;;4.55;2.50;;;;;;;9.36;88.66;90574.75;5003812;28;20017;-86
2021/08/04 04:58:22;;;;;;;3.90;2.38;;;;;;;9.33;88.99;90572.81;5013492;28;20026;-87
2021/08/04 05:00:58;;;;;;;3.80;2.25;;;;;;;9.42;89.34;90570.84;5038025;28;20025;-87
2021/08/04 05:03:37;;;;;;;4.05;1.83;;;;;;;9.54;88.30;90570.06;5010855;28;20030;-84
2021/08/04 05:06:13;;;;;;;5.57;2.25;;;;;;;9.48;87.93;90568.78;4998731;28;20489;-85
2021/08/04 05:08:51;;;;;;;3.40;2.10;;;;;;;9.49;88.34;90558.03;4998147;28;20336;-83
2021/08/04 05:11:25;;;;;;;5.28;1.75;;;;;;;9.55;88.07;90551.53;4982230;28;20109;-86
2021/08/04 05:14:04;;;;;;;4.32;2.25;;;;;;;9.59;88.02;90551.63;4998028;28;20038;-86
2021/08/04 05:16:44;;;;;;;3.28;2.20;;;;;;;9.79;87.52;90565.56;4998331;28;20022;-84
2021/08/04 05:19:21;;;;;;;3.33;1.85;;;;;;;9.84;87.01;90564.56;4982713;28;20029;-84
2021/08/04 05:21:58;;;;;;;4.53;2.15;;;;;;;9.89;86.96;90562.47;5001015;28;20029;-85
2021/08/04 05:24:39;;;;;;;3.28;2.03;;;;;;;9.88;87.15;90570.59;5001478;28;20120;-86
2021/08/04 05:27:20;;;;;;;4.07;2.00;;;;;;;10.16;85.99;90575.81;4999418;28;20026;-86
2021/08/04 05:29:50;;;;;;;4.68;1.80;;;;;;;10.03;87.27;90568.06;4997587;28;20386;-85
2021/08/04 05:32:28;;;;;;;4.32;1.90;;;;;;;10.14;86.81;90580.59;4998387;28;20561;-86
2021/08/04 05:35:06;;;;;;;3.40;2.00;;;;;;;10.12;86.60;90575.72;4998939;28;20482;-85
2021/08/04 05:37:40;;;;;;;3.22;1.55;;;;;;;10.19;86.54;90580.34;4982032;28;20037;-86
2021/08/04 05:40:14;;;;;;;2.80;1.70;;;;;;;10.19;86.58;90582.97;4981800;28;20476;-86
2021/08/04 05:43:14;;;;;;;2.22;1.60;;;;;;;10.27;86.11;90582.06;5001863;28;20422;-86
2021/08/04 05:45:54;;;;;;;2.72;1.50;;;;;;;10.51;85.82;90586.41;4982497;28;20025;-87
2021/08/04 05:48:34;;;;;;;3.20;1.92;;;;;;;10.71;88.65;90590.63;4999616;28;20397;-86
2021/08/04 05:51:10;;;;;;;2.42;1.50;;;;;;;10.77;86.41;90573.63;4982475;28;20060;-85
2021/08/04 05:53:46;;;;;;;2.40;1.70;;;;;;;10.95;86.30;90576.66;5016055;28;20053;-85
2021/08/04 05:56:26;;;;;;;3.65;1.80;;;;;;;11.06;85.08;90578.75;5000679;28;20117;-85
2021/08/04 05:59:08;;;;;;;2.75;1.83;;;;;;;11.07;85.43;90570.59;4984207;28;20038;-86
2021/08/04 06:01:44;;;;;;;2.92;1.65;;;;;;;11.22;84.03;90576.88;5016167;28;20022;-86
2021/08/04 06:04:16;;;;;;;2.03;1.35;;;;;;;11.31;83.45;90574.84;5005250;28;20418;-85
2021/08/04 06:06:54;;;;;;;2.10;1.20;;;;;;;11.40;82.29;90569.44;5005538;28;20026;-87
2021/08/04 06:09:31;;;;;;;2.13;1.20;;;;;;;11.62;82.86;90578.47;5026269;28;20025;-86
2021/08/04 06:12:09;;;;;;;2.47;1.40;;;;;;;11.74;82.62;90580.97;5012629;28;20037;-86
2021/08/04 06:14:51;;;;;;;1.80;1.13;;;;;;;11.93;81.89;90583.59;4995701;28;20030;-85
2021/08/04 06:17:23;;;;;;;4.80;1.20;;;;;;;12.03;82.34;90594.59;5012588;28;20022;-85
2021/08/04 06:20:04;;;;;;;2.88;1.52;;;;;;;12.06;81.93;90584.22;4995062;28;20414;-86
2021/08/04 06:22:42;;;;;;;2.72;1.35;;;;;;;12.18;80.23;90570.25;4996994;28;20405;-85
2021/08/04 06:25:21;;;;;;;2.55;1.08;;;;;;;12.18;81.26;90578.09;4983745;28;20113;-86
2021/08/04 06:27:59;;;;;;;2.30;1.25;;;;;;;12.21;81.27;90577.41;5000691;28;20029;-85
2021/08/04 06:30:37;;;;;;;2.30;1.13;;;;;;;12.28;79.22;90588.00;5014594;28;20053;-85
2021/08/04 06:33:15;;;;;;;2.08;1.30;;;;;;;12.22;78.35;90584.13;5014525;28;20049;-85
2021/08/04 06:35:52;;;;;;;1.83;1.20;;;;;;;12.17;79.78;90581.81;4997796;28;20478;-85
2021/08/04 06:38:25;;;;;;;2.22;1.35;;;;;;;12.44;79.77;90586.06;5014577;28;20025;-85
2021/08/04 06:40:57;;;;;;;4.72;1.27;;;;;;;12.32;79.33;90580.22;5014477;28;20033;-85
2021/08/04 06:43:32;;;;;;;3.35;1.50;;;;;;;12.38;79.28;90587.44;5031642;28;20393;-85
2021/08/04 06:46:02;;;;;;;3.47;1.63;;;;;;;12.55;81.26;90590.72;5014210;28;20036;-85
2021/08/04 06:48:33;;;;;;;2.63;1.30;;;;;;;12.73;79.51;90596.25;5014688;28;20549;-85
2021/08/04 06:51:10;;;;;;;2.38;1.35;;;;;;;12.70;79.87;90596.94;5013909;28;20458;-85
2021/08/04 06:53:50;;;;;;;2.20;1.42;;;;;;;12.80;78.47;90591.88;5014382;28;20026;-85
2021/08/04 06:56:24;;;;;;;4.32;1.55;;;;;;;12.74;77.82;90588.03;4999063;28;20025;-85
2021/08/04 06:59:05;;;;;;;2.10;1.20;;;;;;;12.91;78.51;90592.81;5031080;28;20022;-85
2021/08/04 07:01:40;;;;;;;2.00;1.30;;;;;;;12.98;76.42;90580.97;5014931;28;20045;-85
2021/08/04 07:04:16;;;;;;;2.42;1.30;;;;;;;13.00;77.88;90584.72;5031921;28;20052;-85
2021/08/04 07:07:07;;;;;;;2.47;1.48;;;;;;;13.13;77.00;90580.06;4984184;28;20391;-85
2021/08/04 07:09:47;;;;;;;2.20;1.00;;;;;;;13.16;75.80;90581.97;5018732;28;20036;-85
2021/08/04 07:12:24;;;;;;;2.03;1.13;;;;;;;13.36;76.08;90580.81;5082519;23;20045;-87
2021/08/04 07:15:02;;;;;;;2.00;1.30;;;;;;;13.49;75.46;90578.00;5054927;28;20029;-87
2021/08/04 07:17:34;;;;;;;2.47;1.40;;;;;;;13.53;76.98;90569.09;5037660;28;20033;-86
2021/08/04 07:20:09;;;;;;;2.15;1.35;;;;;;;13.67;75.87;90573.75;5020197;28;20124;-86
2021/08/04 07:22:44;;;;;;;2.25;1.38;;;;;;;13.58;74.06;90570.66;5022069;28;20104;-86
2021/08/04 07:25:23;;;;;;;2.97;1.30;;;;;;;13.57;73.50;90564.66;5021602;28;20388;-86
2021/08/04 07:27:55;;;;;;;2.45;1.30;;;;;;;13.69;72.33;90574.16;5037558;28;20403;-86
2021/08/04 07:30:31;;;;;;;2.80;1.42;;;;;;;13.65;71.20;90573.34;5036562;28;20032;-87
2021/08/04 07:33:12;;;;;;;2.15;1.50;;;;;;;13.60;73.18;90576.25;5036410;28;20033;-86
2021/08/04 07:35:48;;;;;;;2.60;1.48;;;;;;;13.64;73.02;90579.72;5021627;28;20107;-86
2021/08/04 07:38:31;;;;;;;1.90;1.40;;;;;;;13.62;74.44;90576.69;5036969;28;20555;-86
2021/08/04 07:41:06;;;;;;;2.58;1.42;;;;;;;13.72;74.42;90578.69;5021070;28;20029;-87
2021/08/04 07:43:32;;;;;;;2.00;1.30;;;;;;;13.86;72.14;90578.13;5036380;28;20111;-86
2021/08/04 07:46:04;;;;;;;2.75;1.40;;;;;;;13.69;71.81;90576.78;5020147;28;20029;-87
2021/08/04 07:48:41;;;;;;;3.25;1.50;;;;;;;13.75;71.83;90580.59;5037355;28;20025;-87
2021/08/04 07:51:15;;;;;;;2.00;1.40;;;;;;;13.92;70.07;90573.31;5020796;28;20021;-87
2021/08/04 07:53:51;;;;;;;1.98;1.40;;;;;;;13.84;70.38;90590.78;5020676;28;20029;-87
2021/08/04 07:56:29;;;;;;;2.55;1.40;;;;;;;13.99;69.75;90589.09;5020503;28;20037;-86
2021/08/04 07:59:07;;;;;;;2.22;1.58;;;;;;;13.96;70.44;90584.59;5005410;28;20052;-87
2021/08/04 08:01:43;;;;;;;2.83;1.38;;;;;;;14.00;69.44;90582.78;5037540;28;20488;-87
2021/08/04 08:04:21;;;;;;;2.50;1.60;;;;;;;14.02;69.77;90583.16;5037220;28;20079;-86
2021/08/04 08:06:54;;;;;;;3.80;1.38;;;;;;;14.04;70.58;90575.72;5036619;28;20458;-86
2021/08/04 08:09:22;;;;;;;2.88;1.50;;;;;;;13.99;70.49;90583.88;5009634;28;20025;-87
2021/08/04 08:11:58;;;;;;;2.88;1.45;;;;;;;14.03;70.34;90579.44;5019661;28;20403;-86
2021/08/04 08:14:32;;;;;;;2.40;1.30;;;;;;;14.12;67.93;90582.53;5020632;28;20412;-87
2021/08/04 08:17:01;;;;;;;3.15;1.70;;;;;;;14.18;69.53;90585.59;5020133;28;20029;-86
2021/08/04 08:19:34;;;;;;;2.85;1.50;;;;;;;14.16;69.45;90580.69;5035256;28;20492;-87
2021/08/04 08:22:12;;;;;;;2.30;1.30;;;;;;;14.02;69.09;90577.91;5004077;28;20033;-86
2021/08/04 08:24:47;;;;;;;3.28;1.60;;;;;;;14.04;71.84;90586.19;5020467;28;20044;-86
2021/08/04 08:27:24;;;;;;;2.53;1.40;;;;;;;14.26;68.77;90580.06;5032472;28;20025;-86
2021/08/04 08:30:01;;;;;;;4.30;1.45;;;;;;;14.09;68.24;90567.53;5016227;28;20018;-87
2021/08/04 08:32:37;;;;;;;3.95;1.48;;;;;;;14.19;69.82;90571.38;5017836;28;20436;-86
2021/08/04 08:35:08;;;;;;;2.55;1.42;;;;;;;14.25;69.84;90580.44;5001037;28;20025;-87
2021/08/04 08:37:46;;;;;;;2.33;1.70;;;;;;;14.57;67.75;90572.94;5000243;28;20048;-87
2021/08/04 08:40:26;;;;;;;1.85;1.33;;;;;;;14.62;69.16;90579.72;4999434;28;20022;-86
2021/08/04 08:43:02;;;;;;;2.30;1.55;;;;;;;14.57;68.73;90580.81;5000467;28;20116;-86
2021/08/04 08:45:43;;;;;;;2.60;1.25;;;;;;;14.72;66.85;90576.44;4984071;28;20065;-86
2021/08/04 08:48:14;;;;;;;3.25;1.65;;;;;;;14.74;65.71;90567.09;5001352;28;20025;-86
2021/08/04 08:50:44;;;;;;;4.78;1.30;;;;;;;14.69;67.01;90567.41;4999735;28;20014;-86
2021/08/04 08:53:22;;;;;;;2.85;1.40;;;;;;;14.67;66.13;90559.16;5000282;28;20029;-86
2021/08/04 08:55:56;;;;;;;2.55;1.50;;;;;;;14.84;66.17;90555.19;5015823;28;20057;-87
2021/08/04 08:58:31;;;;;;;1.95;1.10;;;;;;;14.98;65.69;90557.16;4999353;28;20040;-86
2021/08/04 09:01:07;;;;;;;2.50;1.33;;;;;;;15.09;66.69;90558.03;5015474;28;20148;-87
2021/08/04 09:03:42;;;;;;;2.33;1.40;;;;;;;15.14;65.32;90555.06;5000222;28;20021;-86
2021/08/04 09:06:16;;;;;;;3.97;1.35;;;;;;;15.32;65.72;90559.69;4999434;28;20057;-85
2021/08/04 09:08:54;;;;;;;2.92;1.40;;;;;;;15.20;64.32;90558.84;5000080;28;20025;-86
2021/08/04 09:11:32;;;;;;;3.05;1.50;;;;;;;15.20;63.85;90550.97;5015008;28;20104;-86
2021/08/04 09:14:14;;;;;;;2.10;1.30;;;;;;;15.14;63.24;90549.81;4999623;28;20061;-87
2021/08/04 09:16:58;;;;;;;2.65;1.30;;;;;;;15.27;65.56;90542.41;5000941;28;20025;-87
2021/08/04 09:19:30;;;;;;;2.50;1.50;;;;;;;15.38;64.15;90542.47;5000268;28;20021;-87
2021/08/04 09:22:30;;;;;;;4.47;1.30;;;;;;;15.44;64.61;90543.63;4998749;28;20060;-87
2021/08/04 09:25:14;;;;;;;2.15;1.30;;;;;;;15.60;64.75;90554.59;5012408;28;20484;-86
2021/08/04 09:27:56;;;;;;;1.55;1.15;;;;;;;15.68;62.60;90545.66;5035062;28;20017;-86
2021/08/04 09:30:32;;;;;;;2.90;1.23;;;;;;;15.72;61.09;90541.19;5033518;28;20029;-86
2021/08/04 09:33:25;;;;;;;3.42;1.33;;;;;;;15.74;62.60;90549.44;5017794;28;20473;-87
2021/08/04 09:35:59;;;;;;;2.22;1.40;;;;;;;15.69;62.28;90541.19;5035031;28;20029;-87
2021/08/04 09:38:39;;;;;;;2.47;1.40;;;;;;;15.81;61.27;90540.84;5034550;28;20428;-86
2021/08/04 09:41:17;;;;;;;2.45;1.50;;;;;;;15.71;64.93;90539.69;5034284;28;20048;-87
2021/08/04 09:43:56;;;;;;;2.88;1.52;;;;;;;15.99;64.48;90535.69;5027352;28;20047;-87
2021/08/04 09:46:31;;;;;;;2.40;1.20;;;;;;;16.11;63.44;90539.84;5017658;28;20489;-87
2021/08/04 09:49:19;;;;;;;2.53;1.23;;;;;;;15.89;63.11;90537.13;5018265;28;20036;-87
2021/08/04 09:52:15;;;;;;;2.97;1.38;;;;;;;15.89;62.11;90536.38;4756155;27;11112058;-87
2021/08/04 09:54:56;;;;;;;3.20;1.30;;;;;;;15.90;61.78;90530.00;5128304;28;20044;-86
2021/08/04 09:57:51;;;;;;;2.47;1.40;;;;;;;15.98;64.86;90534.19;5112453;28;20087;-87
2021/08/04 10:00:29;;;;;;;2.05;1.40;;;;;;;15.98;64.05;90531.56;5111088;28;20023;-87
2021/08/04 10:03:21;;;;;;;2.53;1.20;;;;;;;15.86;61.94;90526.59;5120660;22;20053;-84
2021/08/04 10:05:58;;;;;;;1.88;1.35;;;;;;;15.82;64.21;90528.47;5051731;28;20032;-84
2021/08/04 10:08:37;;;;;;;2.88;1.30;;;;;;;15.98;64.30;90516.53;5067449;28;20051;-84
2021/08/04 10:11:14;;;;;;;2.22;1.52;;;;;;;15.89;66.42;90523.25;5034878;28;20025;-84
2021/08/04 10:13:56;;;;;;;2.22;1.30;;;;;;;15.81;65.01;90521.72;5047182;28;20090;-84
2021/08/04 10:16:38;;;;;;;3.80;1.50;;;;;;;15.70;64.00;90522.41;5037898;28;20013;-87
2021/08/04 10:19:12;;;;;;;1.95;1.20;;;;;;;15.77;64.57;90517.19;5046912;28;20102;-86
2021/08/04 10:21:48;;;;;;;2.90;1.55;;;;;;;15.73;66.25;90518.31;5053436;28;20095;-87
2021/08/04 10:24:22;;;;;;;2.47;1.52;;;;;;;15.70;66.40;90509.28;5036948;28;20035;-85
2021/08/04 10:26:55;;;;;;;2.17;1.48;;;;;;;15.75;66.44;90519.44;5037320;28;20025;-87
2021/08/04 10:29:22;;;;;;;2.70;1.50;;;;;;;15.72;65.41;90509.69;5037312;28;20026;-87
2021/08/04 10:31:55;;;;;;;2.45;1.50;;;;;;;15.89;66.48;90516.13;5037597;28;20064;-87
2021/08/04 10:34:34;;;;;;;4.28;1.90;;;;;;;15.87;65.89;90512.38;5044084;28;20029;-88
2021/08/04 10:37:10;;;;;;;2.72;1.48;;;;;;;15.88;64.88;90511.25;5034495;28;20041;-85
2021/08/04 10:39:47;;;;;;;2.65;1.75;;;;;;;15.81;66.86;90513.84;5048611;28;20060;-86
2021/08/04 10:42:23;;;;;;;2.85;1.40;;;;;;;15.75;66.62;90514.16;5018292;28;20026;-86
2021/08/04 10:45:05;;;;;;;2.60;1.70;;;;;;;15.93;66.67;90511.63;5035510;28;20029;-86
2021/08/04 10:47:42;;;;;;;2.40;1.38;;;;;;;15.74;66.01;90507.41;5037304;28;20025;-84
2021/08/04 10:50:19;;;;;;;2.17;1.70;;;;;;;15.82;67.40;90510.06;5034852;28;20390;-84
2021/08/04 10:53:15;;;;;;;3.78;2.00;;;;;;;15.72;65.71;90514.94;5019290;28;20040;-85
2021/08/04 10:55:59;;;;;;;3.47;2.03;;;;;;;15.69;65.75;90510.41;5037177;28;20029;-86
2021/08/04 10:58:34;;;;;;;2.45;1.60;;;;;;;15.83;67.13;90519.47;5050283;28;20025;-85
2021/08/04 11:01:29;;;;;;;3.38;1.70;;;;;;;15.64;67.71;90518.59;5050784;28;20209;-85
2021/08/04 11:04:04;;;;;;;3.05;1.95;;;;;;;15.41;66.95;90505.00;5008494;28;20485;-85
2021/08/04 11:06:57;;;;;;;4.82;2.25;;;;;;;15.41;67.92;90512.88;5019699;28;20460;-85
2021/08/04 11:09:50;;;;;;;4.03;2.20;;;;;;;15.41;67.88;90508.38;5038233;28;20029;-85
2021/08/04 11:12:29;;;;;;;2.85;1.75;;;;;;;15.33;68.56;90514.66;5003532;28;20190;-85
2021/08/04 11:15:04;;;;;;;2.95;1.80;;;;;;;15.29;68.93;90513.91;5035181;28;20419;-85
2021/08/04 11:17:58;;;;;;;3.10;2.00;;;;;;;15.39;68.68;90521.09;5003640;28;20060;-85
2021/08/04 11:20:35;;;;;;;4.03;1.75;;;;;;;15.38;68.66;90522.22;5037157;28;20024;-87
2021/08/04 11:23:21;;;;;;;3.25;1.73;;;;;;;15.15;67.48;90519.81;5036999;28;20029;-86
2021/08/04 11:25:53;;;;;;;2.55;1.75;;;;;;;15.30;68.67;90520.69;5033463;28;20490;-86
2021/08/04 11:28:33;;;;;;;4.50;2.00;;;;;;;15.21;67.84;90518.34;5017128;28;20033;-86
2021/08/04 11:31:16;;;;;;;2.70;1.92;;;;;;;15.28;69.04;90512.41;5017996;28;20095;-86
2021/08/04 11:33:51;;;;;;;2.72;1.80;;;;;;;15.19;69.29;90510.09;5017972;28;20116;-85
2021/08/04 11:36:23;;;;;;;4.07;2.08;;;;;;;15.51;68.50;90510.28;5033428;28;20386;-85
2021/08/04 11:39:11;;;;;;;3.38;1.70;;;;;;;15.54;65.81;90508.78;5016983;28;20036;-87
2021/08/04 11:41:49;;;;;;;4.53;1.73;;;;;;;15.57;64.16;90515.94;5018474;28;20030;-86
2021/08/04 11:44:28;;;;;;;2.95;1.60;;;;;;;15.72;64.00;90508.91;5018230;28;20093;-87
2021/08/04 11:47:09;;;;;;;3.20;1.70;;;;;;;15.60;65.89;90515.22;5001337;28;20034;-86
2021/08/04 11:50:03;;;;;;;3.60;2.00;;;;;;;15.58;65.99;90506.94;5016471;28;20021;-87
2021/08/04 11:52:40;;;;;;;3.25;1.60;;;;;;;15.32;66.60;90509.81;5001411;28;20022;-86
2021/08/04 11:55:15;;;;;;;2.65;2.08;;;;;;;15.38;67.08;90510.97;5000949;28;20036;-86
2021/08/04 11:57:58;;;;;;;4.55;2.15;;;;;;;15.44;65.89;90506.84;5016599;28;20100;-86
2021/08/04 12:00:33;;;;;;;5.05;2.30;;;;;;;15.34;66.51;90510.94;5000961;28;20025;-86
2021/08/04 12:03:19;;;;;;;4.70;2.22;;;;;;;15.27;67.27;90518.78;5016837;28;20037;-86
2021/08/04 12:05:58;;;;;;;3.22;2.20;;;;;;;14.90;68.44;90503.88;5017716;28;20429;-86
2021/08/04 12:08:42;;;;;;;3.83;2.40;;;;;;;14.98;68.61;90499.44;5019267;28;20041;-87
2021/08/04 12:11:15;;;;;;;3.83;2.00;;;;;;;14.90;67.50;90505.75;5017807;28;20133;-86
2021/08/04 12:14:04;;;;;;;3.00;1.92;;;;;;;14.90;68.54;90503.13;5015804;28;20275;-86
2021/08/04 12:16:44;;;;;;;3.20;1.83;;;;;;;14.85;69.66;90511.38;5016823;28;20425;-86
2021/08/04 12:19:31;;;;;;;3.97;1.90;;;;;;;14.70;69.61;90508.63;5013523;28;20033;-87
2021/08/04 12:22:03;;;;;;;3.13;1.92;;;;;;;14.93;68.75;90507.66;5038993;28;20026;-87
2021/08/04 12:24:43;;;;;;;3.13;2.08;;;;;;;14.83;68.90;90499.34;5025584;28;20041;-86
2021/08/04 12:27:33;;;;;;;3.28;2.25;;;;;;;14.67;71.32;90490.25;5036707;28;20112;-86
2021/08/04 12:30:17;;;;;;;3.03;1.92;;;;;;;14.75;71.17;90510.16;5035414;28;20037;-86